Flight Track Log - Related Links

Times and Time Zones

All times are in EDT time to prevent confusion due to time zone crossing. See the FSR411 flight status page for this flight to view local times or setup timezone preferences in your user account.

Time Position Orientation Groundspeed Altitude Reporting Facility
EDT Latitude Longitude Course Direction KTS MPH feet Rate Location/Type
Thu 07:45:54 AM 40.0797 -88.2464 65° Northeast 155 178 4,400  Level Chicago Center
Thu 07:46:56 AM 40.1022 -88.1694 69° East 216 249 7,600 3,024 Climbing Chicago Center
Thu 07:47:57 AM 40.1297 -88.0742 69° East 265 305 10,600 2,976 Climbing Chicago Center
Thu 07:48:59 AM 40.1661 -87.9603 67° East 314 361 13,700 3,268 Climbing Chicago Center
Thu 07:50:00 AM 40.2147 -87.8053 68° East 370 426 17,300 3,122 Climbing Chicago Center
Thu 07:51:00 AM 40.2875 -87.4574 65° Northeast  Level FlightAware Approximate
Thu 07:51:02 AM 40.2572 -87.6650 68° East 407 468 20,100  Level Chicago Center
Thu 07:52:03 AM 40.3017 -87.5225 68° East 422 486 23,200 2,829 Climbing Chicago Center
Thu 07:53:05 AM 40.3464 -87.3750 68° East 425 489 25,900 1,854 Climbing Chicago Center
Thu 07:54:06 AM 40.3925 -87.2228 68° East 444 511 27,000 537 Climbing Chicago Center
Thu 07:55:08 AM 40.4417 -87.0581 69° East 478 550 27,000  Level Chicago Center
Thu 07:56:09 AM 40.4900 -86.8939 69° East 482 555 27,000  Level Chicago Center
Thu 07:57:10 AM 40.5392 -86.7319 68° East 479 551 27,000  Level Chicago Center
Thu 07:58:12 AM 40.5858 -86.5703 69° East 476 548 27,000  Level Chicago Center
Thu 07:59:14 AM 40.6342 -86.4075 69° East 477 549 27,000  Level Chicago Center
Thu 08:00:15 AM 40.6894 -86.2128 69° East 475 547 27,000 -98 Level Chicago Center
Thu 08:01:17 AM 40.7364 -86.0511 69° East 473 544 26,800 -629 Descending Chicago Center
Thu 08:02:19 AM 40.7828 -85.8883 69° East 475 547 25,700 -1,024 Descending Chicago Center
Thu 08:03:20 AM 40.8275 -85.7283 70° East 471 542 24,700 -1,171 Descending Chicago Center
Thu 08:04:22 AM 40.8744 -85.5678 69° East 472 543 23,300 -1,403 Descending Chicago Center
Thu 08:05:24 AM 40.9167 -85.4142 70° East 455 524 21,800 -1,659 Descending Chicago Center
Thu 08:06:25 AM 40.9661 -85.2289 70° East 451 519 19,900 -1,659 Descending Chicago Center
Thu 08:07:27 AM 41.0100 -85.0828 68° East 439 505 18,400 -1,306 Descending Chicago Center
Thu 08:08:29 AM 41.0558 -84.9400 67° East 429 494 17,200 -683 Descending Chicago Center
Thu 08:09:30 AM 41.1003 -84.8003 67° East 419 482 17,000 -98 Descending Chicago Center
Thu 08:10:32 AM 41.1431 -84.6603 68° East 415 478 17,000  Level Chicago Center
Thu 08:11:34 AM 41.1864 -84.5175 68° East 419 482 17,000 -774 Level Chicago Center
Thu 08:12:36 AM 41.2386 -84.3489 68° East 414 476 15,400 -1,463 Descending Chicago Center
Thu 08:13:37 AM 41.2794 -84.2147 68° East 399 459 14,000 -1,366 Descending Chicago Center
Thu 08:14:39 AM 41.3194 -84.0842 68° East 387 445 12,600 -1,355 Descending Chicago Center
Thu 08:15:41 AM 41.3575 -83.9550 69° East 380 437 11,200 -1,100 Descending Chicago Center
Thu 08:16:39 AM 41.3972 -83.8136 69° East 377 434 10,400 -661 Descending Cleveland Center
Thu 08:17:39 AM 41.4364 -83.6881 67° East 382 440 9,900 -250 Descending Cleveland Center
Thu 08:18:39 AM 41.4814 -83.5600 65° Northeast 382 440 9,900  Level Cleveland Center
Thu 08:19:39 AM 41.5303 -83.4403 61° Northeast 372 428 9,900 51 Level Cleveland Center
Thu 08:20:37 AM 41.5792 -83.3203 61° Northeast 375 432 10,000 -106 Climbing Cleveland Center
Thu 08:21:32 AM 41.6192 -83.2164 63° Northeast 309 356 9,700 -818 Descending Cleveland Center
Thu 08:22:27 AM 41.6567 -83.1233 62° Northeast 308 354 8,500 -879 Descending Cleveland Center
Thu 08:23:28 AM 41.6942 -83.0247 63° Northeast 305 351 8,000 -234 Descending Cleveland Center
Thu 08:24:35 AM 41.7383 -82.9122 62° Northeast 305 351 8,000 -281 Level Cleveland Center
Thu 08:25:36 AM 41.7858 -82.8194 56° Northeast 287 330 7,400 -885 Descending Cleveland Center
Thu 08:26:37 AM 41.8547 -82.8217 359° North 256 295 6,200 -1,289 Descending Cleveland Center
Thu 08:27:37 AM 41.9272 -82.8494 344° North 250 288 4,800 -992 Descending Cleveland Center
Thu 08:28:44 AM 42.0039 -82.8744 346° North 254 292 4,100 -372 Descending Cleveland Center
Thu 08:29:46 AM 42.0700 -82.8964 346° North 251 289 4,000 -47 Descending Cleveland Center
Thu 08:30:52 AM 42.1444 -82.9244 344° North 250 288 4,000 -331 Level Cleveland Center
Thu 08:31:53 AM 42.2150 -82.9494 345° North 249 287 3,300 -517 Descending Cleveland Center
Thu 08:32:48 AM 42.2731 -82.9600 352° North 210 242 3,000 -207 Descending Cleveland Center
Thu 08:33:49 AM 42.3208 -82.9675 353° North 150 173 2,900 -492 Descending Cleveland Center
Thu 08:34:50 AM 42.3603 -82.9717 356° North 128 147 2,000 -873 Descending Cleveland Center
Thu 08:35:39 AM 42.3850 -82.9839 340° North 113 130 1,300 -857 Descending Cleveland Center

Login

Don't have an account? Register now (free) for customized features, flight alerts, and more!